Time;durP1;ratioP1;P1;durP2;ratioP2;P2;SDS_P1;SDS_P2;PMS_P1;PMS_P2;Temp;Humidity;BMP_temperature;BMP_pressure;BME280_temperature;BME280_humidity;BME280_pressure;Samples;Min_cycle;Max_cycle;Signal;HPM_P1;HPM_P2
2022/01/09 00:02:25;;;;;;;;;6.75;3.75;;;;;7.84;73.51;99361.13;5070104;28;45801;-75
2022/01/09 00:04:51;;;;;;;;;3.00;1.75;;;;;7.91;73.40;99381.00;5071358;28;45348;-75
2022/01/09 00:07:16;;;;;;;;;5.00;2.25;;;;;7.90;74.19;99381.94;5070548;28;46231;-75
2022/01/09 00:09:44;;;;;;;;;7.00;3.00;;;;;7.91;73.57;99399.44;5068601;28;45423;-75
2022/01/09 00:12:10;;;;;;;;;7.50;3.00;;;;;7.90;73.69;99401.22;5072814;28;48100;-75
2022/01/09 00:14:35;;;;;;;;;14.00;5.00;;;;;7.44;73.43;99328.66;5071640;28;45368;-75
2022/01/09 00:17:00;;;;;;;;;6.00;4.00;;;;;7.88;72.74;99415.38;5037335;28;48784;-74
2022/01/09 00:19:26;;;;;;;;;6.50;2.00;;;;;7.88;73.30;99418.00;5074479;28;45315;-74
2022/01/09 00:21:51;;;;;;;;;9.50;3.25;;;;;7.73;72.06;99401.09;5071294;28;45642;-74
2022/01/09 00:24:17;;;;;;;;;11.50;2.75;;;;;7.81;72.73;99424.50;5072860;28;45455;-74
2022/01/09 00:26:42;;;;;;;;;6.25;2.00;;;;;7.62;73.64;99406.88;5054877;28;47326;-74
2022/01/09 00:29:09;;;;;;;;;3.50;2.50;;;;;7.26;73.63;99339.09;5071393;27;45331;-74
2022/01/09 00:31:35;;;;;;;;;4.00;4.00;;;;;7.83;74.35;99436.66;5074206;28;45428;-74
2022/01/09 00:34:01;;;;;;;;;9.25;3.00;;;;;7.81;74.61;99446.41;5073772;28;45395;-76
2022/01/09 00:36:26;;;;;;;;;11.75;3.00;;;;;7.80;74.77;99451.75;5071234;28;45436;-75
2022/01/09 00:38:52;;;;;;;;;14.25;4.25;;;;;7.86;74.21;99464.66;5067395;28;45902;-75
2022/01/09 00:41:17;;;;;;;;;6.25;2.00;;;;;7.81;74.37;99453.47;5054733;28;45609;-76
2022/01/09 00:43:43;;;;;;;;;9.00;3.00;;;;;7.89;74.94;99478.56;5073459;28;45509;-75
2022/01/09 00:46:09;;;;;;;;;3.25;2.00;;;;;7.85;73.30;99498.06;5071612;28;45427;-76
2022/01/09 00:48:34;;;;;;;;;2.75;1.00;;;;;7.71;73.56;99472.28;5066323;28;45454;-75
2022/01/09 00:51:00;;;;;;;;;5.00;1.75;;;;;7.85;74.18;99497.16;5063338;28;45412;-74
2022/01/09 00:53:25;;;;;;;;;5.25;1.00;;;;;7.80;73.76;99486.00;5070750;28;45470;-76
2022/01/09 00:55:51;;;;;;;;;7.75;2.00;;;;;7.80;73.30;99486.84;5072630;28;47214;-75
2022/01/09 00:58:16;;;;;;;;;8.00;3.00;;;;;7.80;71.00;99504.44;5072730;28;45288;-75
2022/01/09 01:00:41;;;;;;;;;14.75;2.00;;;;;7.43;71.76;99455.94;5070398;28;45394;-75
2022/01/09 01:03:07;;;;;;;;;3.00;1.25;;;;;7.66;72.32;99505.00;5072805;28;45481;-76
2022/01/09 01:05:32;;;;;;;;;3.00;1.00;;;;;7.63;70.69;99508.63;5072263;28;45997;-76
2022/01/09 01:07:58;;;;;;;;;1.00;1.00;;;;;7.67;70.54;99527.78;5057634;28;45354;-75
2022/01/09 01:10:23;;;;;;;;;6.50;1.00;;;;;7.66;70.16;99531.34;5078111;28;45466;-74
2022/01/09 01:12:49;;;;;;;;;1.00;1.00;;;;;7.44;70.41;99512.91;5074533;28;45368;-74
2022/01/09 01:15:14;;;;;;;;;3.75;2.00;;;;;7.40;70.38;99520.09;5074220;28;45607;-75
2022/01/09 01:17:41;;;;;;;;;4.00;2.75;;;;;7.51;69.80;99546.84;5074080;28;45305;-75
2022/01/09 01:20:07;;;;;;;;;2.25;1.00;;;;;7.46;70.08;99554.06;5074171;28;45427;-74
2022/01/09 01:22:33;;;;;;;;;2.75;2.00;;;;;7.49;69.65;99574.16;5056244;28;45562;-75
2022/01/09 01:24:59;;;;;;;;;2.00;0.50;;;;;7.31;69.80;99548.56;5075544;28;46508;-75
2022/01/09 01:27:25;;;;;;;;;3.75;1.00;;;;;7.35;70.11;99572.06;5073565;27;45534;-74
2022/01/09 01:29:50;;;;;;;;;5.00;1.00;;;;;7.22;69.72;99548.00;5074008;28;45328;-74
2022/01/09 01:32:16;;;;;;;;;1.00;1.00;;;;;7.34;70.37;99572.97;5076099;27;45356;-74
2022/01/09 01:34:41;;;;;;;;;2.50;1.25;;;;;7.42;71.05;99604.28;5078011;27;46468;-74
2022/01/09 01:37:06;;;;;;;;;7.00;1.00;;;;;7.40;69.43;99600.84;5074914;27;45297;-74
2022/01/09 01:39:32;;;;;;;;;6.50;1.50;;;;;7.14;69.96;99563.22;5073580;27;46829;-74
2022/01/09 01:41:57;;;;;;;;;2.00;2.00;;;;;7.38;70.81;99607.94;5075610;27;45592;-74
2022/01/09 01:44:22;;;;;;;;;3.50;1.00;;;;;7.31;70.24;99593.31;5075824;27;46458;-76
2022/01/09 01:46:48;;;;;;;;;6.25;3.25;;;;;7.31;70.42;99603.84;5090832;27;45645;-76
2022/01/09 01:49:13;;;;;;;;;7.50;3.25;;;;;7.41;69.76;99636.75;5059267;28;45450;-75
2022/01/09 01:51:43;;;;;;;;;5.00;3.00;;;;;7.16;70.28;99605.28;5080405;27;45443;-76
2022/01/09 01:54:11;;;;;;;;;4.00;3.00;;;;;7.33;70.03;99636.22;5074924;27;46015;-76
2022/01/09 01:56:36;;;;;;;;;3.75;1.25;;;;;6.79;69.99;99552.31;5080400;27;45292;-76
2022/01/09 01:59:02;;;;;;;;;3.75;2.50;;;;;7.34;70.15;99662.47;5083523;27;45518;-77
2022/01/09 02:01:28;;;;;;;;;5.25;4.00;;;;;7.36;70.97;99659.78;5077331;27;45305;-74
2022/01/09 02:03:54;;;;;;;;;3.25;2.00;;;;;7.25;69.25;99654.94;5077633;27;46164;-75
2022/01/09 02:06:20;;;;;;;;;10.00;7.75;;;;;7.25;69.48;99660.19;5062422;27;45578;-75
2022/01/09 02:08:45;;;;;;;;;12.25;6.25;;;;;7.30;70.70;99662.66;5075252;27;45344;-75
2022/01/09 02:11:11;;;;;;;;;13.00;3.25;;;;;7.25;69.11;99666.31;5074633;27;45482;-75
2022/01/09 02:13:40;;;;;;;;;2.25;2.25;;;;;7.18;69.59;99663.97;5075840;27;46154;-76
2022/01/09 02:16:06;;;;;;;;;5.25;1.00;;;;;7.22;70.27;99691.88;5083208;27;45555;-76
2022/01/09 02:18:31;;;;;;;;;8.25;4.25;;;;;7.10;70.06;99680.03;5078684;27;45317;-76
2022/01/09 02:20:57;;;;;;;;;3.00;1.00;;;;;7.15;69.43;99691.25;5075289;27;45552;-75
2022/01/09 02:23:22;;;;;;;;;7.50;3.00;;;;;7.09;69.97;99687.97;5073040;27;45389;-76
2022/01/09 02:25:48;;;;;;;;;2.00;1.00;;;;;6.98;69.07;99676.09;5075041;27;46187;-76
2022/01/09 02:28:15;;;;;;;;;12.50;4.25;;;;;7.07;68.97;99711.72;5073800;27;45436;-76
2022/01/09 02:30:42;;;;;;;;;7.25;1.75;;;;;7.07;69.89;99717.00;5078975;27;45373;-76
2022/01/09 02:33:11;;;;;;;;;4.25;2.50;;;;;7.03;69.80;99723.28;5083527;27;46237;-76
2022/01/09 02:35:37;;;;;;;;;0.00;0.00;;;;;7.04;69.69;99719.72;5062367;28;45530;-76
2022/01/09 02:38:04;;;;;;;;;8.25;4.50;;;;;7.05;69.33;99734.59;5084054;27;45515;-76
2022/01/09 02:40:30;;;;;;;;;4.00;2.25;;;;;7.03;68.54;99739.06;5072454;27;45385;-76
2022/01/09 02:42:56;;;;;;;;;7.50;2.25;;;;;6.93;69.55;99732.41;5075307;27;46190;-76
2022/01/09 02:45:23;;;;;;;;;3.25;1.75;;;;;6.87;68.95;99733.47;5072370;27;45277;-76
2022/01/09 02:47:50;;;;;;;;;4.50;1.75;;;;;6.91;69.04;99742.09;5079866;27;45371;-75
2022/01/09 02:52:54;;;;;;;;;4.00;3.00;;;;;6.76;68.94;99739.09;5075010;28;45983;-75
2022/01/09 02:55:21;;;;;;;;;3.75;2.00;;;;;6.94;69.36;99778.81;5075963;27;45734;-75
2022/01/09 02:57:50;;;;;;;;;7.00;1.00;;;;;6.90;69.82;99770.19;5075564;27;45506;-75
2022/01/09 03:00:21;;;;;;;;;3.00;1.00;;;;;6.70;68.71;99752.47;5074877;27;45572;-75
2022/01/09 03:02:47;;;;;;;;;2.00;0.00;;;;;6.63;68.96;99737.81;5072801;27;45505;-75
2022/01/09 03:05:13;;;;;;;;;2.00;1.00;;;;;6.60;69.09;99751.06;5073383;27;45367;-75
2022/01/09 03:07:40;;;;;;;;;1.00;1.00;;;;;6.81;69.13;99802.06;5075617;28;45343;-75
2022/01/09 03:10:07;;;;;;;;;5.75;2.00;;;;;6.78;69.77;99792.50;5084268;27;45293;-75
2022/01/09 03:12:33;;;;;;;;;3.75;1.00;;;;;6.72;69.09;99789.22;5085586;27;45345;-75
2022/01/09 03:14:59;;;;;;;;;4.75;2.00;;;;;6.83;69.82;99803.75;5088028;27;44782;-76
2022/01/09 03:17:24;;;;;;;;;11.75;2.00;;;;;6.77;69.61;99803.09;5077589;27;45376;-75
2022/01/09 03:19:49;;;;;;;;;0.00;0.00;;;;;6.69;69.09;99792.81;5085539;27;45381;-75
2022/01/09 03:22:15;;;;;;;;;10.25;2.50;;;;;6.55;69.19;99777.50;5075644;28;46176;-75
2022/01/09 03:24:42;;;;;;;;;1.25;1.00;;;;;6.75;69.76;99812.78;5067078;27;45550;-74
2022/01/09 03:27:08;;;;;;;;;3.00;1.00;;;;;6.60;69.21;99799.25;5072068;27;45518;-74
2022/01/09 03:29:33;;;;;;;;;6.00;2.50;;;;;6.66;69.75;99815.72;5074192;27;45550;-75
2022/01/09 03:31:59;;;;;;;;;6.00;1.00;;;;;6.69;69.93;99818.25;5086054;27;46264;-75
2022/01/09 03:34:24;;;;;;;;;6.75;2.00;;;;;6.69;69.49;99821.75;5075864;27;45360;-74
2022/01/09 03:36:49;;;;;;;;;3.00;1.50;;;;;6.57;69.18;99803.75;5074017;27;45338;-74
2022/01/09 03:39:15;;;;;;;;;3.75;1.00;;;;;6.62;69.74;99817.63;5073283;27;45319;-75
2022/01/09 03:41:40;;;;;;;;;6.50;5.75;;;;;6.54;68.90;99806.47;5074156;27;46030;-75
2022/01/09 03:44:05;;;;;;;;;6.25;2.00;;;;;6.64;69.32;99844.69;5053185;28;45891;-75
2022/01/09 03:46:31;;;;;;;;;16.50;4.00;;;;;6.62;69.49;99838.66;5089575;27;45823;-75
2022/01/09 03:48:56;;;;;;;;;3.25;3.00;;;;;6.60;69.46;99838.69;5073786;27;45422;-75
2022/01/09 03:51:25;;;;;;;;;14.25;8.50;;;;;6.62;69.59;99841.28;5058636;28;46543;-75
2022/01/09 03:53:51;;;;;;;;;9.00;5.50;;;;;6.45;69.46;99815.53;5073176;28;45498;-75
2022/01/09 03:56:16;;;;;;;;;7.50;1.25;;;;;6.59;69.31;99842.22;5078261;27;45800;-75
2022/01/09 03:58:42;;;;;;;;;8.75;8.00;;;;;6.51;69.22;99838.13;5074260;28;45320;-75
2022/01/09 04:01:08;;;;;;;;;11.25;7.00;;;;;6.57;69.10;99845.81;5074309;27;46465;-75
2022/01/09 04:03:34;;;;;;;;;7.50;6.00;;;;;6.53;68.93;99839.78;5071340;27;46175;-75
2022/01/09 04:06:01;;;;;;;;;22.25;9.50;;;;;6.59;68.76;99849.25;5085113;27;45773;-76
2022/01/09 04:08:27;;;;;;;;;13.50;6.00;;;;;6.56;69.71;99849.34;5071493;28;45312;-75
2022/01/09 04:10:52;;;;;;;;;18.00;6.75;;;;;6.41;69.99;99824.38;5073011;27;45446;-75
2022/01/09 04:13:18;;;;;;;;;9.25;3.00;;;;;6.20;69.19;99788.28;5074211;27;45327;-75
2022/01/09 04:15:49;;;;;;;;;26.25;13.00;;;;;6.54;68.97;99851.16;5073040;27;45344;-75
2022/01/09 04:18:20;;;;;;;;;13.25;8.25;;;;;6.54;69.17;99853.78;5074039;27;45817;-75
2022/01/09 04:20:47;;;;;;;;;18.00;4.50;;;;;6.54;69.42;99857.28;5072653;27;45396;-75
2022/01/09 04:23:13;;;;;;;;;12.75;9.00;;;;;6.37;69.09;99843.81;5070799;28;45641;-76
2022/01/09 04:25:40;;;;;;;;;3.00;3.00;;;;;6.30;69.30;99834.41;5075482;27;45297;-76
2022/01/09 04:28:06;;;;;;;;;10.25;3.50;;;;;6.52;69.38;99874.00;5058123;28;45442;-75
2022/01/09 04:30:31;;;;;;;;;14.00;9.00;;;;;6.54;69.68;99885.34;5071295;28;45415;-75
2022/01/09 04:32:56;;;;;;;;;11.25;6.25;;;;;6.48;68.99;99878.50;5067169;27;45450;-75
2022/01/09 04:35:22;;;;;;;;;18.00;9.25;;;;;6.46;69.43;99882.94;5073389;27;45518;-75
2022/01/09 04:37:48;;;;;;;;;9.00;6.50;;;;;6.36;68.69;99873.63;5073270;28;45358;-75
2022/01/09 04:40:16;;;;;;;;;18.25;11.75;;;;;6.33;68.57;99886.88;5075552;27;45522;-74
2022/01/09 04:42:45;;;;;;;;;6.75;1.75;;;;;6.35;69.45;99901.69;5078906;27;45521;-75
2022/01/09 04:45:13;;;;;;;;;6.75;4.25;;;;;6.31;69.82;99904.44;5076667;27;45485;-74
2022/01/09 04:47:41;;;;;;;;;8.00;7.75;;;;;6.19;69.78;99878.53;5075464;27;45543;-75
2022/01/09 04:50:10;;;;;;;;;21.25;13.00;;;;;6.29;69.40;99904.47;5074809;28;45448;-75
2022/01/09 04:52:38;;;;;;;;;8.75;8.25;;;;;6.10;69.75;99874.41;5073982;27;45372;-74
2022/01/09 04:55:04;;;;;;;;;17.50;9.25;;;;;6.30;70.18;99903.59;5085302;27;45176;-75
2022/01/09 04:57:29;;;;;;;;;15.50;8.00;;;;;6.26;69.64;99901.06;5081107;27;45439;-75
2022/01/09 04:59:55;;;;;;;;;9.00;4.00;;;;;6.27;68.94;99906.31;5061427;28;47224;-75
2022/01/09 05:02:20;;;;;;;;;10.00;4.00;;;;;6.20;70.13;99904.75;5086905;27;45498;-75
2022/01/09 05:04:45;;;;;;;;;9.50;6.00;;;;;6.03;69.39;99864.97;5076872;27;45268;-75
2022/01/09 05:07:11;;;;;;;;;6.25;2.00;;;;;6.13;69.89;99895.34;5077995;27;45422;-75
2022/01/09 05:09:36;;;;;;;;;7.00;3.00;;;;;6.36;69.53;99934.94;5058958;27;48146;-75
2022/01/09 05:12:02;;;;;;;;;16.75;7.00;;;;;6.17;68.58;99898.72;5068314;27;45475;-75
2022/01/09 05:14:27;;;;;;;;;10.75;7.00;;;;;6.25;69.41;99920.38;5083866;27;45522;-75
2022/01/09 05:16:52;;;;;;;;;11.25;6.25;;;;;6.36;69.44;99940.19;5075846;27;45503;-75
2022/01/09 05:19:20;;;;;;;;;17.00;6.75;;;;;6.37;69.50;99947.16;5085172;27;46189;-75
2022/01/09 05:21:47;;;;;;;;;4.25;1.25;;;;;6.34;68.66;99949.88;5076947;27;45505;-75
2022/01/09 05:24:12;;;;;;;;;11.25;2.75;;;;;6.33;69.04;99953.41;5074036;27;45344;-75
2022/01/09 05:26:38;;;;;;;;;3.75;2.25;;;;;6.23;69.53;99941.44;5076119;27;45502;-74
2022/01/09 05:29:03;;;;;;;;;5.25;3.00;;;;;6.14;69.20;99928.56;5073908;27;46687;-74
2022/01/09 05:31:29;;;;;;;;;3.25;2.00;;;;;6.26;69.45;99954.50;5088841;27;45444;-74
2022/01/09 05:33:54;;;;;;;;;2.00;2.00;;;;;6.28;69.06;99970.22;5076069;27;45274;-74
2022/01/09 05:36:19;;;;;;;;;5.50;1.00;;;;;6.04;68.62;99937.63;5075647;27;45891;-74
2022/01/09 05:38:45;;;;;;;;;10.50;2.00;;;;;6.10;69.15;99934.84;5074045;27;45305;-74
2022/01/09 05:41:10;;;;;;;;;6.75;2.00;;;;;6.10;69.98;99933.06;5073901;27;45363;-74
2022/01/09 05:43:36;;;;;;;;;3.00;2.75;;;;;6.28;69.66;99968.44;5077399;27;45501;-74
2022/01/09 05:46:02;;;;;;;;;7.25;3.50;;;;;6.12;69.39;99939.16;5074090;27;45393;-74
2022/01/09 05:48:27;;;;;;;;;7.25;4.00;;;;;6.18;69.87;99942.47;5078164;27;45475;-74
2022/01/09 05:50:52;;;;;;;;;5.50;2.25;;;;;6.19;69.43;99946.84;5074520;28;45363;-74
2022/01/09 05:53:17;;;;;;;;;6.00;2.00;;;;;6.10;69.97;99932.19;5073909;28;45541;-74
2022/01/09 05:55:43;;;;;;;;;6.00;2.00;;;;;6.25;69.17;99965.91;5076342;27;45477;-74
2022/01/09 05:58:08;;;;;;;;;4.00;1.00;;;;;6.02;69.30;99932.41;5074828;27;46172;-74
2022/01/09 06:00:34;;;;;;;;;6.00;1.00;;;;;6.09;68.99;99948.88;5075891;27;45455;-74
2022/01/09 06:02:59;;;;;;;;;4.75;1.25;;;;;5.96;68.93;99918.59;5073040;28;45559;-74
2022/01/09 06:05:24;;;;;;;;;7.50;1.00;;;;;6.21;69.92;99961.66;5073992;28;45462;-74
2022/01/09 06:07:50;;;;;;;;;7.50;2.00;;;;;6.18;69.14;99964.38;5076142;27;46290;-75
2022/01/09 06:10:15;;;;;;;;;1.75;1.75;;;;;5.69;68.64;99889.56;5077552;27;45500;-75
2022/01/09 06:12:41;;;;;;;;;6.75;1.50;;;;;6.12;69.37;99964.56;5074977;27;45752;-75
2022/01/09 06:15:07;;;;;;;;;8.00;4.00;;;;;6.13;69.33;99959.25;5075071;27;45371;-75
2022/01/09 06:17:37;;;;;;;;;13.00;9.00;;;;;6.01;69.93;99953.50;5072739;27;45506;-75
2022/01/09 06:20:04;;;;;;;;;7.25;5.50;;;;;6.09;68.76;99969.91;5064298;27;45289;-75
2022/01/09 06:22:29;;;;;;;;;8.75;4.00;;;;;5.82;69.74;99927.69;5073385;28;45382;-75
2022/01/09 06:24:54;;;;;;;;;13.50;3.00;;;;;6.02;68.43;99973.59;5078601;27;45546;-75
2022/01/09 06:27:21;;;;;;;;;5.00;2.75;;;;;6.02;69.68;99990.19;5078879;28;46299;-74
2022/01/09 06:29:47;;;;;;;;;4.50;2.00;;;;;6.02;69.82;99986.72;5085942;27;45749;-74
2022/01/09 06:32:12;;;;;;;;;3.75;2.00;;;;;5.89;69.38;99970.41;5081893;27;45398;-75
2022/01/09 06:34:37;;;;;;;;;7.75;3.00;;;;;5.83;69.75;99953.06;5080468;28;45450;-75
2022/01/09 06:37:03;;;;;;;;;2.00;2.00;;;;;5.96;69.37;99973.75;5074495;27;46016;-75
2022/01/09 06:39:29;;;;;;;;;2.50;1.00;;;;;6.01;69.90;99987.63;5073334;27;45442;-75
2022/01/09 06:41:55;;;;;;;;;5.25;2.00;;;;;5.99;69.89;99995.53;5073007;27;45332;-75
2022/01/09 06:44:21;;;;;;;;;4.00;2.00;;;;;5.95;69.80;99979.91;5088541;27;45428;-75
2022/01/09 06:46:46;;;;;;;;;6.25;2.00;;;;;5.71;68.45;99945.50;5080075;27;45496;-75
2022/01/09 06:49:12;;;;;;;;;7.50;2.50;;;;;5.63;69.07;99943.09;5058579;28;45484;-75
2022/01/09 06:51:37;;;;;;;;;9.00;2.50;;;;;5.85;69.74;99979.25;5068063;27;45359;-75
2022/01/09 06:54:03;;;;;;;;;4.25;2.75;;;;;5.77;69.41;99970.75;5082213;27;45370;-75
2022/01/09 06:56:29;;;;;;;;;10.50;4.00;;;;;5.78;69.42;99983.81;5084338;27;46162;-75
2022/01/09 06:58:54;;;;;;;;;3.75;0.50;;;;;5.79;69.95;99985.53;5055870;28;45658;-75
2022/01/09 07:01:20;;;;;;;;;9.00;2.75;;;;;5.71;69.39;99969.16;5086466;27;45612;-75
2022/01/09 07:03:45;;;;;;;;;7.75;2.00;;;;;5.42;69.23;99935.78;5074809;27;45397;-75
2022/01/09 07:06:11;;;;;;;;;2.75;2.00;;;;;5.79;69.60;100003.91;5054363;28;47333;-74
2022/01/09 07:08:37;;;;;;;;;4.00;1.75;;;;;5.81;70.58;99998.63;5080025;27;45378;-75
2022/01/09 07:11:04;;;;;;;;;3.75;2.00;;;;;5.78;69.80;100004.81;5073227;28;45316;-75
2022/01/09 07:13:29;;;;;;;;;7.50;1.00;;;;;5.77;69.52;100010.13;5059606;28;45353;-75
2022/01/09 07:15:55;;;;;;;;;6.25;1.00;;;;;5.74;69.88;100018.94;5073330;27;46179;-75
2022/01/09 07:18:21;;;;;;;;;8.50;2.00;;;;;5.53;69.95;100002.00;5059212;27;45916;-74
2022/01/09 07:20:47;;;;;;;;;8.00;4.25;;;;;5.64;69.80;100020.91;5084384;27;45686;-74
2022/01/09 07:23:12;;;;;;;;;8.50;3.00;;;;;5.43;70.07;99988.22;5072902;27;45560;-74
2022/01/09 07:25:37;;;;;;;;;9.50;7.00;;;;;5.43;70.39;99990.84;5075221;28;46303;-74
2022/01/09 07:28:03;;;;;;;;;6.00;4.25;;;;;5.58;70.48;100026.31;5072959;27;45604;-74
2022/01/09 07:30:29;;;;;;;;;13.00;6.75;;;;;5.53;69.60;100016.84;5071945;27;45354;-75
2022/01/09 07:32:55;;;;;;;;;13.25;9.25;;;;;5.58;69.83;100017.59;5055871;28;45663;-74
2022/01/09 07:35:21;;;;;;;;;10.25;7.25;;;;;5.63;69.80;100027.09;5075475;27;45664;-74
2022/01/09 07:37:46;;;;;;;;;16.25;8.50;;;;;5.50;69.41;100016.94;5074378;28;45412;-75
2022/01/09 07:40:12;;;;;;;;;8.00;7.00;;;;;5.49;70.06;100020.47;5074359;27;45510;-75
2022/01/09 07:42:37;;;;;;;;;6.75;5.50;;;;;5.60;69.73;100045.53;5071700;27;45277;-75
2022/01/09 07:45:06;;;;;;;;;11.75;7.75;;;;;5.60;69.93;100042.91;5071524;28;46119;-75
2022/01/09 07:47:33;;;;;;;;;17.50;7.50;;;;;5.60;69.95;100049.94;5077495;27;45529;-75
2022/01/09 07:49:58;;;;;;;;;9.00;7.00;;;;;5.55;69.50;100046.56;5073867;27;45422;-75
2022/01/09 07:52:23;;;;;;;;;13.50;8.00;;;;;5.63;70.45;100055.09;5079391;27;45308;-74
2022/01/09 07:54:49;;;;;;;;;16.50;8.75;;;;;5.55;70.22;100039.53;5078617;27;45416;-74
2022/01/09 07:57:14;;;;;;;;;9.00;6.00;;;;;5.69;70.42;100063.69;5079680;27;45757;-74
2022/01/09 07:59:40;;;;;;;;;8.00;3.25;;;;;5.64;69.46;100047.16;5071592;27;45550;-74
2022/01/09 08:02:06;;;;;;;;;12.50;7.25;;;;;5.73;69.29;100064.47;5084903;27;45344;-74
2022/01/09 08:04:32;;;;;;;;;8.00;6.00;;;;;5.64;70.17;100064.69;5075580;28;45383;-74
2022/01/09 08:06:57;;;;;;;;;7.50;4.50;;;;;5.54;69.62;100056.19;5070844;27;45488;-74
2022/01/09 08:09:22;;;;;;;;;6.25;3.75;;;;;5.69;70.08;100084.69;5073545;27;45431;-75
2022/01/09 08:11:49;;;;;;;;;7.00;3.50;;;;;5.70;69.19;100082.91;5083032;27;45429;-75
2022/01/09 08:14:14;;;;;;;;;10.75;3.25;;;;;5.58;69.92;100077.97;5085900;27;45553;-76
2022/01/09 08:16:40;;;;;;;;;11.50;6.00;;;;;5.68;69.81;100088.22;5074083;28;45415;-75
2022/01/09 08:19:05;;;;;;;;;7.75;4.00;;;;;5.45;69.28;100054.66;5079115;27;45530;-75
2022/01/09 08:21:31;;;;;;;;;14.75;5.25;;;;;5.65;70.27;100093.53;5074159;27;45411;-75
2022/01/09 08:23:58;;;;;;;;;6.00;1.75;;;;;5.55;70.15;100062.31;5074956;27;46503;-75
2022/01/09 08:26:23;;;;;;;;;9.75;2.75;;;;;5.66;70.04;100078.66;5072967;27;45587;-76
2022/01/09 08:28:48;;;;;;;;;16.25;10.25;;;;;5.55;68.92;100072.78;5075195;27;45542;-75
2022/01/09 08:31:18;;;;;;;;;5.25;3.00;;;;;5.71;70.05;100087.28;5073193;27;45325;-74
2022/01/09 08:33:45;;;;;;;;;6.00;6.00;;;;;5.70;69.37;100088.16;5054729;28;47313;-74
2022/01/09 08:36:10;;;;;;;;;4.50;4.25;;;;;5.67;70.22;100104.00;5076697;27;45549;-74
2022/01/09 08:38:35;;;;;;;;;5.25;3.00;;;;;5.56;69.24;100087.63;5073120;27;45683;-74
2022/01/09 08:41:01;;;;;;;;;3.50;3.00;;;;;5.26;69.35;100032.38;5071727;28;45660;-74
2022/01/09 08:43:27;;;;;;;;;17.25;2.75;;;;;5.56;70.93;100069.25;5083550;27;45670;-75
2022/01/09 08:45:52;;;;;;;;;5.50;4.00;;;;;5.66;70.46;100081.28;5073725;27;45434;-75
2022/01/09 08:48:18;;;;;;;;;3.00;2.00;;;;;5.61;69.57;100072.66;5076403;27;45486;-74
2022/01/09 08:50:43;;;;;;;;;7.75;4.00;;;;;5.69;69.68;100086.44;5073084;28;45584;-74
2022/01/09 08:53:09;;;;;;;;;10.75;4.25;;;;;5.40;69.57;100037.28;5072106;27;45475;-74
2022/01/09 08:55:34;;;;;;;;;10.50;4.25;;;;;5.82;70.09;100103.59;5059234;28;45419;-74
2022/01/09 08:58:00;;;;;;;;;1.25;1.25;;;;;5.82;70.00;100108.88;5071855;27;46429;-75
2022/01/09 09:00:26;;;;;;;;;3.00;2.00;;;;;5.77;69.95;100096.78;5074126;27;45422;-75
2022/01/09 09:02:51;;;;;;;;;89.67;67.67;;;;;5.73;70.05;100071.47;5080316;27;45463;-75
2022/01/09 09:05:18;;;;;;;;;6.00;3.00;;;;;5.81;69.62;100086.13;5067363;28;45423;-75
2022/01/09 09:07:43;;;;;;;;;7.75;2.75;;;;;5.85;69.32;100102.69;5073363;28;45273;-75
2022/01/09 09:10:09;;;;;;;;;4.25;2.50;;;;;5.88;69.33;100103.50;5072176;27;45606;-75
2022/01/09 09:12:35;;;;;;;;;11.50;2.00;;;;;6.07;69.02;100137.19;5063262;27;46013;-74
2022/01/09 09:15:03;;;;;;;;;9.00;3.75;;;;;5.95;69.25;100104.22;5058312;28;45475;-75
2022/01/09 09:17:30;;;;;;;;;7.50;2.75;;;;;6.18;69.17;100134.28;5057244;27;45376;-75
2022/01/09 09:19:55;;;;;;;;;8.00;2.25;;;;;6.16;68.82;100126.44;5071197;28;45386;-75
2022/01/09 09:22:21;;;;;;;;;4.50;3.00;;;;;6.15;68.67;100114.22;5068334;28;46311;-75
2022/01/09 09:24:46;;;;;;;;;11.25;3.75;;;;;6.26;68.79;100135.78;5058465;28;45747;-75
2022/01/09 09:27:12;;;;;;;;;7.75;4.00;;;;;6.24;69.30;100111.34;5062122;27;45455;-75
2022/01/09 09:29:37;;;;;;;;;9.75;4.00;;;;;6.51;68.33;100140.44;5066977;27;45427;-75
2022/01/09 09:32:03;;;;;;;;;11.00;4.00;;;;;6.57;68.30;100135.00;5058117;27;45353;-75
2022/01/09 09:34:29;;;;;;;;;7.25;6.00;;;;;6.65;68.75;100129.50;5072902;28;45752;-76
2022/01/09 09:36:54;;;;;;;;;16.25;8.75;;;;;6.75;68.47;100138.88;5077997;27;45376;-77
2022/01/09 09:39:20;;;;;;;;;27.00;19.75;;;;;6.67;68.31;100117.19;5078127;28;45359;-75
2022/01/09 09:41:45;;;;;;;;;8.00;4.00;;;;;6.87;67.35;100143.78;5081602;27;45381;-74
2022/01/09 09:44:12;;;;;;;;;8.50;6.50;;;;;6.94;67.78;100145.34;5061431;28;45411;-75
2022/01/09 09:46:37;;;;;;;;;9.25;7.25;;;;;7.04;67.65;100156.47;5064206;27;45376;-75
2022/01/09 09:49:03;;;;;;;;;5.75;2.75;;;;;6.98;66.91;100122.44;5071610;27;45686;-75
2022/01/09 09:51:30;;;;;;;;;14.75;6.00;;;;;7.36;67.21;100141.50;5067190;27;45971;-75
2022/01/09 09:53:57;;;;;;;;;14.75;4.00;;;;;7.71;66.01;100149.16;5069307;28;45546;-75
2022/01/09 09:56:22;;;;;;;;;18.00;7.75;;;;;8.05;65.19;100161.22;5061346;27;45424;-75
2022/01/09 09:58:52;;;;;;;;;51.25;38.50;;;;;8.32;64.71;100166.47;5089586;27;45535;-75
2022/01/09 10:01:23;;;;;;;;;15.25;11.75;;;;;8.47;64.34;100162.47;5061202;27;45510;-75
2022/01/09 10:03:57;;;;;;;;;19.75;9.50;;;;;8.61;65.02;100147.91;5058865;27;45223;-75
2022/01/09 10:06:42;;;;;;;;;16.50;10.00;;;;;8.98;63.83;100162.41;5064106;28;45479;-75
2022/01/09 10:09:14;;;;;;;;;11.75;8.00;;;;;9.37;62.89;100175.03;5068355;27;45426;-74
2022/01/09 10:12:00;;;;;;;;;9.00;3.25;;;;;9.64;62.77;100172.22;5063801;27;46072;-75
2022/01/09 10:14:29;;;;;;;;;4.25;3.50;;;;;9.85;61.54;100170.50;5061907;27;45566;-75
2022/01/09 10:17:19;;;;;;;;;7.25;5.00;;;;;9.90;61.02;100169.41;5074122;27;45625;-74
2022/01/09 10:20:00;;;;;;;;;5.00;3.00;;;;;10.06;61.60;100172.31;5067286;27;45387;-75
2022/01/09 10:22:40;;;;;;;;;5.50;3.00;;;;;10.17;60.56;100162.13;5071381;27;46548;-76
2022/01/09 10:25:26;;;;;;;;;5.75;2.50;;;;;10.28;61.56;100166.16;5063210;27;45425;-75
2022/01/09 10:28:13;;;;;;;;;14.50;11.00;;;;;10.37;60.74;100163.97;5060346;28;48578;-75
2022/01/09 10:30:46;;;;;;;;;4.00;3.75;;;;;10.35;60.05;100152.63;5065542;28;45557;-74
2022/01/09 10:33:17;;;;;;;;;6.25;3.50;;;;;10.38;58.91;100163.06;5069165;27;45282;-75
2022/01/09 10:35:46;;;;;;;;;5.50;2.25;;;;;10.35;58.58;100171.13;5045180;27;45771;-75
2022/01/09 10:38:19;;;;;;;;;7.25;5.00;;;;;10.20;59.49;100148.78;5057769;27;45477;-74
2022/01/09 10:40:49;;;;;;;;;4.00;3.00;;;;;10.29;58.67;100162.56;5066724;28;45591;-75
2022/01/09 10:43:20;;;;;;;;;4.25;4.00;;;;;10.06;59.83;100134.41;5074308;27;46024;-75
2022/01/09 10:45:56;;;;;;;;;9.25;4.00;;;;;10.33;59.71;100174.75;5072551;28;45375;-75
2022/01/09 10:48:23;;;;;;;;;6.75;2.00;;;;;10.36;59.18;100167.56;5079549;27;45537;-75
2022/01/09 10:50:51;;;;;;;;;6.25;4.50;;;;;10.23;59.14;100148.66;5075652;27;47370;-75
2022/01/09 10:53:30;;;;;;;;;72.75;53.50;;;;;10.47;60.49;100180.34;5072527;27;45551;-75
2022/01/09 10:56:16;;;;;;;;;7.75;5.75;;;;;10.59;59.81;100181.56;5073954;28;45582;-74
2022/01/09 10:58:48;;;;;;;;;11.25;5.50;;;;;10.59;58.59;100178.91;5078228;27;45324;-75
2022/01/09 11:01:17;;;;;;;;;8.50;4.00;;;;;10.62;58.01;100173.50;5082757;27;45488;-75
2022/01/09 11:03:59;;;;;;;;;28.00;17.50;;;;;10.66;59.08;100180.38;5075796;27;46015;-75
2022/01/09 11:06:27;;;;;;;;;296.40;235.60;;;;;10.35;58.04;100112.94;5073464;27;45305;-75
2022/01/09 11:08:56;;;;;;;;;11.25;6.25;;;;;10.62;59.00;100152.34;5072103;28;45675;-76
2022/01/09 11:11:42;;;;;;;;;12.00;5.25;;;;;10.64;58.36;100139.88;5073818;27;45537;-75
2022/01/09 11:14:13;;;;;;;;;6.25;3.25;;;;;10.81;57.16;100166.47;5067765;27;45647;-75
2022/01/09 11:16:44;;;;;;;;;7.50;2.00;;;;;10.73;57.01;100157.16;5059221;27;45484;-75
2022/01/09 11:19:18;;;;;;;;;9.00;5.75;;;;;10.73;58.69;100160.66;5060340;28;45391;-76
2022/01/09 11:21:49;;;;;;;;;7.50;4.75;;;;;10.82;57.78;100177.91;5064419;27;45527;-76
2022/01/09 11:24:35;;;;;;;;;9.75;5.00;;;;;10.69;58.30;100172.31;5064186;27;45766;-75
2022/01/09 11:27:19;;;;;;;;;4.50;3.75;;;;;10.77;58.71;100177.28;5058969;27;45352;-75
2022/01/09 11:30:06;;;;;;;;;3.25;2.00;;;;;10.74;57.42;100183.56;5058015;27;45447;-75
2022/01/09 11:32:40;;;;;;;;;4.00;3.00;;;;;10.73;57.31;100181.81;5049308;28;45602;-75
2022/01/09 11:35:18;;;;;;;;;5.00;3.25;;;;;10.69;57.79;100181.09;5038399;28;46246;-76
2022/01/09 11:38:07;;;;;;;;;5.75;3.00;;;;;10.69;59.31;100188.19;5071334;28;45481;-75